^^
Saratoga-Weather Station Historical Data
Daily Summary for July 28, 2021 Units:  English    Metric   Both
Daily Weekly Monthly Yearly Custom
  High: Low: Average:
Temperature: 61 °F 54.1 °F 56.8 °F
Dew Point: 56.5 °F 50.9 °F 52.9 °F
Humidity: 89% 81% 87%
Wind Speed: 8.9mph 0mph 2.8mph
Wind Gust: 9mph - -
Wind- - West
Pressure: 30.1 in 30 in -
Precipitation: 0.01 in    
Historical Graphs
 
 
Tabular Data for July 28, 2021
Time Temperature Dew Point Pressure Wind Wind Speed Wind Gust Humidity Rainfall Rate (Hourly) solar
00:00 59 °F 53.2 °F 30.1 in WNW 4 mph 6 mph 81% 0 in 0 W/m2
00:05 58.6 °F 52.9 °F 30.1 in West 6 mph 6 mph 81% 0 in 0 W/m2
00:10 58.6 °F 53.2 °F 30.1 in WNW 2 mph 6 mph 82% 0 in 0 W/m2
00:15 58.5 °F 53.1 °F 30.1 in West 4 mph 4 mph 82% 0 in 0 W/m2
00:20 58.3 °F 52.9 °F 30.1 in NW 0.9 mph 3 mph 82% 0 in 0 W/m2
00:25 58.1 °F 52.7 °F 30.1 in WNW 4 mph 4 mph 82% 0 in 0 W/m2
00:30 57.9 °F 52.7 °F 30.1 in WNW 2.9 mph 4 mph 83% 0 in 0 W/m2
00:35 57.7 °F 52.7 °F 30.1 in West 0.9 mph 2 mph 83% 0 in 0 W/m2
00:40 57.6 °F 52.7 °F 30.1 in WNW 0.9 mph 2 mph 84% 0 in 0 W/m2
00:45 57.4 °F 52.5 °F 30.1 in West 0.9 mph 2 mph 84% 0 in 0 W/m2
00:50 57 °F 52.5 °F 30.1 in WNW 0.9 mph 3 mph 85% 0 in 0 W/m2
00:55 56.8 °F 52.3 °F 30.1 in WNW 2 mph 6 mph 85% 0 in 0 W/m2
01:01 56.7 °F 52.2 °F 30.1 in West 2.9 mph 3 mph 85% 0 in 0 W/m2
01:06 56.7 °F 52.5 °F 30.1 in West 2 mph 4 mph 86% 0 in 0 W/m2
01:11 56.7 °F 52.5 °F 30.1 in West 2 mph 3 mph 86% 0 in 0 W/m2
01:16 56.7 °F 52.5 °F 30.1 in West 2.9 mph 4 mph 86% 0 in 0 W/m2
01:21 56.7 °F 52.5 °F 30.1 in WNW 0.9 mph 6 mph 86% 0 in 0 W/m2
01:26 56.7 °F 52.5 °F 30.1 in West 8.1 mph 8 mph 86% 0 in 0 W/m2
01:31 56.8 °F 52.3 °F 30.1 in WNW 2.9 mph 5 mph 85% 0 in 0 W/m2
01:36 56.8 °F 52.3 °F 30.1 in West 2.9 mph 6 mph 85% 0 in 0 W/m2
01:41 56.8 °F 52.3 °F 30.1 in West 2.9 mph 8 mph 85% 0 in 0 W/m2
01:46 56.8 °F 52.3 °F 30.1 in West 2 mph 8 mph 85% 0 in 0 W/m2
01:51 56.8 °F 52.3 °F 30.1 in WNW 2 mph 8 mph 85% 0 in 0 W/m2
01:56 56.8 °F 52.3 °F 30.1 in WNW 2 mph 3 mph 85% 0 in 0 W/m2
02:01 56.7 °F 52.2 °F 30.1 in West 2 mph 8 mph 85% 0 in 0 W/m2
02:06 56.5 °F 52 °F 30.1 in WNW 0.9 mph 6 mph 85% 0 in 0 W/m2
02:11 56.3 °F 52.2 °F 30.1 in Calm   4 mph 86% 0 in 0 W/m2
02:16 56.3 °F 52.2 °F 30.1 in WNW 2 mph 7 mph 86% 0 in 0 W/m2
02:21 56.3 °F 52.2 °F 30.1 in West 2 mph 4 mph 86% 0 in 0 W/m2
02:26 56.3 °F 52.2 °F 30.1 in WNW 2 mph 7 mph 86% 0 in 0 W/m2
02:31 56.3 °F 52.2 °F 30.1 in WNW 2.9 mph 4 mph 86% 0 in 0 W/m2
02:36 56.1 °F 52 °F 30.1 in NW 2.9 mph 8 mph 86% 0 in 0 W/m2
02:41 56.1 °F 52 °F 30.1 in West 2 mph 4 mph 86% 0 in 0 W/m2
02:46 56.1 °F 52 °F 30.1 in West 2.9 mph 7 mph 86% 0 in 0 W/m2
02:51 55.9 °F 51.8 °F 30.1 in WNW 2 mph 4 mph 86% 0 in 0 W/m2
02:56 55.9 °F 51.8 °F 30.1 in WNW 4 mph 6 mph 86% 0 in 0 W/m2
03:01 55.9 °F 51.8 °F 30.1 in WNW 4 mph 6 mph 86% 0 in 0 W/m2
03:06 55.9 °F 51.8 °F 30.1 in West 6 mph 7 mph 86% 0 in 0 W/m2
03:11 55.9 °F 51.8 °F 30 in West 2.9 mph 7 mph 86% 0 in 0 W/m2
03:16 55.8 °F 52 °F 30 in West 2.9 mph 4 mph 87% 0 in 0 W/m2
03:21 55.8 °F 52 °F 30 in SW 4.9 mph 9 mph 87% 0 in 0 W/m2
03:26 55.8 °F 52 °F 30 in West 2.9 mph 6 mph 87% 0 in 0 W/m2
03:31 55.8 °F 52 °F 30 in WSW 6.9 mph 9 mph 87% 0 in 0 W/m2
03:36 55.6 °F 51.8 °F 30 in WNW 2.9 mph 6 mph 87% 0 in 0 W/m2
03:41 55.6 °F 51.8 °F 30 in WNW 2 mph 6 mph 87% 0 in 0 W/m2
03:46 55.4 °F 51.6 °F 30 in West 2.9 mph 4 mph 87% 0 in 0 W/m2
03:51 55.2 °F 51.4 °F 30 in WNW 2.9 mph 4 mph 87% 0 in 0 W/m2
03:56 55 °F 51.6 °F 30 in West 2.9 mph 6 mph 88% 0 in 0 W/m2
04:01 55 °F 51.6 °F 30 in West 2.9 mph 5 mph 88% 0 in 0 W/m2
04:06 54.9 °F 51.4 °F 30 in WSW 2.9 mph 4 mph 88% 0 in 0 W/m2
04:11 54.7 °F 51.3 °F 30 in WSW 4 mph 5 mph 88% 0 in 0 W/m2
04:16 54.7 °F 51.4 °F 30 in WSW 2.9 mph 3 mph 89% 0 in 0 W/m2
04:21 54.5 °F 51.3 °F 30.1 in West 2 mph 4 mph 89% 0 in 0 W/m2
04:26 54.3 °F 51.1 °F 30 in West 2.9 mph 6 mph 89% 0 in 0 W/m2
04:31 54.3 °F 51.1 °F 30.1 in WSW 4 mph 6 mph 89% 0 in 0 W/m2
04:36 54.5 °F 51.3 °F 30.1 in WSW 4 mph 6 mph 89% 0 in 0 W/m2
04:41 54.5 °F 51.3 °F 30.1 in WNW 2.9 mph 4 mph 89% 0 in 0 W/m2
04:46 54.5 °F 51.3 °F 30.1 in West 4 mph 7 mph 89% 0 in 0 W/m2
04:51 54.7 °F 51.4 °F 30.1 in West 4 mph 7 mph 89% 0 in 0 W/m2
04:56 54.7 °F 51.4 °F 30.1 in West 2 mph 6 mph 89% 0 in 0 W/m2
05:01 54.7 °F 51.4 °F 30.1 in West 2 mph 6 mph 89% 0 in 0 W/m2
05:06 54.5 °F 51.3 °F 30.1 in WNW 2 mph 4 mph 89% 0 in 0 W/m2
05:11 54.5 °F 51.3 °F 30.1 in West 2 mph 3 mph 89% 0 in 0 W/m2
05:16 54.3 °F 51.1 °F 30 in West 2 mph 3 mph 89% 0 in 0 W/m2
05:21 54.3 °F 51.1 °F 30.1 in WSW 4.9 mph 6 mph 89% 0 in 0 W/m2
05:26 54.3 °F 51.1 °F 30 in WSW 4.9 mph 8 mph 89% 0 in 0 W/m2
05:31 54.3 °F 51.1 °F 30 in WNW 4 mph 6 mph 89% 0 in 0 W/m2
05:36 54.1 °F 50.9 °F 30.1 in West 2 mph 6 mph 89% 0 in 0 W/m2
05:41 54.1 °F 50.9 °F 30.1 in WSW 4 mph 4 mph 89% 0 in 0 W/m2
05:46 54.1 °F 50.9 °F 30.1 in West 2 mph 4 mph 89% 0 in 0 W/m2
05:51 54.1 °F 50.9 °F 30.1 in West 2 mph 4 mph 89% 0 in 0 W/m2
05:56 54.1 °F 50.9 °F 30.1 in West 2.9 mph 7 mph 89% 0 in 0 W/m2
06:01 54.3 °F 51.1 °F 30.1 in WSW 8.9 mph 9 mph 89% 0 in 0 W/m2
06:06 54.5 °F 51.3 °F 30.1 in WNW 4 mph 6 mph 89% 0 in 0 W/m2
06:11 54.7 °F 51.4 °F 30.1 in WSW 6 mph 9 mph 89% 0 in 0 W/m2
06:16 54.9 °F 51.4 °F 30.1 in WSW 6 mph 8 mph 88% 0 in 0 W/m2
06:21 55 °F 51.6 °F 30.1 in West 4 mph 6 mph 88% 0 in 0 W/m2
06:26 55.2 °F 51.8 °F 30.1 in West 4 mph 8 mph 88% 0 in 0 W/m2
06:31 55.2 °F 51.8 °F 30.1 in WSW 2.9 mph 7 mph 88% 0 in 0 W/m2
06:36 55.2 °F 51.8 °F 30 in WSW 4 mph 8 mph 88% 0 in 0 W/m2
06:41 55.2 °F 51.8 °F 30 in West 2.9 mph 8 mph 88% 0 in 0 W/m2
06:46 55.4 °F 52 °F 30 in SW 2 mph 5 mph 88% 0 in 0 W/m2
06:51 55.4 °F 52 °F 30 in WSW 4.9 mph 8 mph 88% 0 in 0 W/m2
06:56 55.4 °F 51.6 °F 30 in WSW 4.9 mph 5 mph 87% 0 in 5 W/m2
07:01 55.6 °F 51.8 °F 30.1 in WSW 4.9 mph 7 mph 87% 0 in 5 W/m2
07:06 55.6 °F 51.8 °F 30 in WSW 4 mph 8 mph 87% 0 in 7 W/m2
07:11 55.4 °F 51.6 °F 30 in WSW 2.9 mph 4 mph 87% 0 in 9 W/m2
07:16 55.4 °F 51.6 °F 30 in West 2.9 mph 8 mph 87% 0 in 11 W/m2
07:21 55.4 °F 51.6 °F 30 in WSW 2.9 mph 4 mph 87% 0 in 12 W/m2
07:26 55.2 °F 51.4 °F 30 in West 2 mph 7 mph 87% 0 in 12 W/m2
07:31 55.2 °F 51.4 °F 30.1 in West 2 mph 3 mph 87% 0 in 14 W/m2
07:36 55.2 °F 51.8 °F 30.1 in WNW 0.9 mph 6 mph 88% 0 in 19 W/m2
07:41 55.2 °F 51.8 °F 30.1 in WNW 2.9 mph 4 mph 88% 0 in 23 W/m2
07:46 55.2 °F 51.8 °F 30.1 in WNW 2 mph 4 mph 88% 0 in 28 W/m2
07:52 55.2 °F 51.8 °F 30.1 in WNW 2 mph 6 mph 88% 0 in 32 W/m2
07:57 55.2 °F 51.8 °F 30.1 in West 2.9 mph 4 mph 88% 0 in 32 W/m2
08:02 55.2 °F 51.8 °F 30.1 in West 0.9 mph 3 mph 88% 0 in 33 W/m2
08:07 55.2 °F 51.8 °F 30.1 in WNW 2 mph 5 mph 88% 0 in 40 W/m2
08:12 55.4 °F 52 °F 30.1 in West 0.9 mph 3 mph 88% 0 in 33 W/m2
08:17 55.4 °F 52 °F 30.1 in WSW 0.9 mph 5 mph 88% 0 in 33 W/m2
08:22 55.6 °F 52.2 °F 30.1 in West 0.9 mph 3 mph 88% 0 in 37 W/m2
08:27 55.6 °F 52.3 °F 30.1 in West 2 mph 4 mph 89% 0 in 88 W/m2
08:32 55.6 °F 52.3 °F 30.1 in West 0.9 mph 2 mph 89% 0 in 40 W/m2
08:37 55.8 °F 52.5 °F 30.1 in West 0.9 mph 4 mph 89% 0 in 44 W/m2
08:42 55.8 °F 52.5 °F 30.1 in Calm   1 mph 89% 0 in 49 W/m2
08:47 55.8 °F 52.5 °F 30.1 in West 0.9 mph 2 mph 89% 0 in 100 W/m2
08:52 55.9 °F 52.7 °F 30.1 in WSW 2 mph 3 mph 89% 0 in 109 W/m2
08:57 56.3 °F 53.1 °F 30.1 in WNW 4 mph 6 mph 89% 0 in 104 W/m2
09:02 56.7 °F 53.1 °F 30.1 in NW 0.9 mph 4 mph 88% 0 in 142 W/m2
09:07 56.8 °F 53.1 °F 30.1 in West 2 mph 6 mph 87% 0 in 148 W/m2
09:12 57 °F 53.2 °F 30.1 in WNW 2 mph 4 mph 87% 0 in 153 W/m2
09:17 57.6 °F 53.8 °F 30.1 in WSW 2 mph 4 mph 87% 0 in 181 W/m2
09:22 57.7 °F 53.6 °F 30.1 in WNW 2.9 mph 4 mph 86% 0 in 202 W/m2
09:27 58.1 °F 54 °F 30.1 in NW 2.9 mph 5 mph 86% 0 in 218 W/m2
09:32 58.5 °F 54 °F 30.1 in WNW 2 mph 7 mph 85% 0 in 214 W/m2
09:37 58.6 °F 54.1 °F 30.1 in NW 2 mph 5 mph 85% 0 in 142 W/m2
09:42 58.8 °F 54 °F 30.1 in NW 4 mph 8 mph 84% 0 in 234 W/m2
09:47 59.2 °F 54.3 °F 30.1 in WNW 4.9 mph 7 mph 84% 0 in 260 W/m2
09:52 59.4 °F 54.5 °F 30.1 in West 2.9 mph 8 mph 84% 0 in 211 W/m2
09:57 59.5 °F 54.7 °F 30.1 in West 2 mph 6 mph 84% 0 in 167 W/m2
10:02 59.5 °F 54.3 °F 30.1 in NW 0.9 mph 3 mph 83% 0 in 139 W/m2
10:07 59.7 °F 54.5 °F 30.1 in West 2.9 mph 8 mph 83% 0 in 151 W/m2
10:12 59.7 °F 54.5 °F 30.1 in NW 0.9 mph 2 mph 83% 0 in 193 W/m2
10:17 60.1 °F 54.9 °F 30.1 in WNW 2 mph 4 mph 83% 0 in 200 W/m2
10:22 60.3 °F 54.7 °F 30.1 in WNW 2 mph 3 mph 82% 0 in 142 W/m2
10:27 60.4 °F 54.9 °F 30.1 in WNW 4 mph 4 mph 82% 0 in 123 W/m2
10:32 60.3 °F 55 °F 30.1 in West 6.9 mph 9 mph 83% 0 in 123 W/m2
10:37 59.5 °F 55 °F 30.1 in North 2.9 mph 4 mph 85% 0 in 125 W/m2
10:42 59.4 °F 55.2 °F 30.1 in West 2 mph 9 mph 86% 0 in 139 W/m2
10:47 59.2 °F 55.6 °F 30.1 in WNW 0.9 mph 2 mph 88% 0 in 137 W/m2
10:52 59.4 °F 56.1 °F 30.1 in WNW 2 mph 4 mph 89% 0 in 195 W/m2
10:57 59.4 °F 56.1 °F 30.1 in WNW 2 mph 2 mph 89% 0.01 in 258 W/m2
11:02 59.7 °F 56.5 °F 30.1 in WNW 2 mph 4 mph 89% 0.01 in 172 W/m2
11:07 60.1 °F 56.5 °F 30.1 in WNW 2 mph 3 mph 88% 0.01 in 223 W/m2
11:12 60.3 °F 56.3 °F 30.1 in WNW 4 mph 6 mph 87% 0.01 in 237 W/m2
11:17 60.4 °F 55.9 °F 30.1 in West 2 mph 6 mph 85% 0.01 in 121 W/m2
11:22 60.4 °F 56.3 °F 30.1 in West 4 mph 5 mph 86% 0.01 in 116 W/m2
11:27 60.4 °F 56.3 °F 30.1 in West 2 mph 4 mph 86% 0.01 in 102 W/m2
11:32 60.3 °F 56.1 °F 30.1 in WSW 2 mph 9 mph 86% 0.01 in 81 W/m2
11:37 60.1 °F 55.6 °F 30.1 in WSW 2.9 mph 8 mph 85% 0.01 in 54 W/m2
11:42 60.1 °F 55.9 °F 30.1 in WNW 2.9 mph 9 mph 86% 0.01 in 83 W/m2
11:47 60.1 °F 55.9 °F 30.1 in West 2 mph 7 mph 86% 0.01 in 135 W/m2
11:52 60.1 °F 56.1 °F 30.1 in WNW 0.9 mph 4 mph 87% 0.01 in 120 W/m2
11:57 60.3 °F 56.3 °F 30.1 in WNW 2.9 mph 7 mph 87% 0 in 162 W/m2
12:02 60.4 °F 56.3 °F 30.1 in WNW 2 mph 4 mph 86% 0 in 162 W/m2
12:07 60.6 °F 56.5 °F 30.1 in West 6 mph 6 mph 86% 0 in 130 W/m2
12:12 61 °F 56.5 °F 30.1 in West 6 mph 6 mph 85% 0 in 79 W/m2
12:17 61 °F 56.5 °F 30.1 in West 2.9 mph 7 mph 85% 0 in 56 W/m2
12:22 61 °F 56.1 °F 30.1 in WSW 2.9 mph 8 mph 84% 0 in 105 W/m2
12:27 61 °F 56.5 °F 30.1 in West 2.9 mph 6 mph 85% 0 in 109 W/m2
Juneau County Weather
Compliments of Weather Underground - 2 mb